sensor_id;sensor_type;location;lat;lon;timestamp;temperature;humidity
56512;DHT22;42408;53.238;5.686;2022-11-02T00:01:18;12.80;99.90
56512;DHT22;42408;53.238;5.686;2022-11-02T00:03:45;12.80;99.90
56512;DHT22;42408;53.238;5.686;2022-11-02T00:06:10;12.80;99.90
56512;DHT22;42408;53.238;5.686;2022-11-02T00:08:36;12.70;99.90
56512;DHT22;42408;53.238;5.686;2022-11-02T00:11:01;12.70;99.90
56512;DHT22;42408;53.238;5.686;2022-11-02T00:13:27;12.80;99.90
56512;DHT22;42408;53.238;5.686;2022-11-02T00:15:53;12.70;99.90
56512;DHT22;42408;53.238;5.686;2022-11-02T00:18:18;12.70;99.90
56512;DHT22;42408;53.238;5.686;2022-11-02T00:20:44;12.80;99.90
56512;DHT22;42408;53.238;5.686;2022-11-02T00:23:09;12.80;99.90
56512;DHT22;42408;53.238;5.686;2022-11-02T00:25:37;12.70;99.90
56512;DHT22;42408;53.238;5.686;2022-11-02T00:28:03;12.70;99.90
56512;DHT22;42408;53.238;5.686;2022-11-02T00:30:28;12.80;99.90
56512;DHT22;42408;53.238;5.686;2022-11-02T00:32:54;12.80;99.90
56512;DHT22;42408;53.238;5.686;2022-11-02T00:35:19;12.90;99.90
56512;DHT22;42408;53.238;5.686;2022-11-02T00:37:45;12.90;99.90
56512;DHT22;42408;53.238;5.686;2022-11-02T00:40:11;12.80;99.90
56512;DHT22;42408;53.238;5.686;2022-11-02T00:42:36;12.80;99.90
56512;DHT22;42408;53.238;5.686;2022-11-02T00:45:02;12.90;99.90
56512;DHT22;42408;53.238;5.686;2022-11-02T00:47:27;12.80;99.90
56512;DHT22;42408;53.238;5.686;2022-11-02T00:49:53;12.70;99.90
56512;DHT22;42408;53.238;5.686;2022-11-02T00:52:18;12.70;99.90
56512;DHT22;42408;53.238;5.686;2022-11-02T00:54:44;12.70;99.90
56512;DHT22;42408;53.238;5.686;2022-11-02T00:57:09;12.60;99.90
56512;DHT22;42408;53.238;5.686;2022-11-02T00:59:35;12.60;99.90
56512;DHT22;42408;53.238;5.686;2022-11-02T01:02:00;12.60;99.90
56512;DHT22;42408;53.238;5.686;2022-11-02T01:04:26;12.40;99.90
56512;DHT22;42408;53.238;5.686;2022-11-02T01:06:51;12.40;99.90
56512;DHT22;42408;53.238;5.686;2022-11-02T01:09:17;12.40;99.90
56512;DHT22;42408;53.238;5.686;2022-11-02T01:11:43;12.40;99.90
56512;DHT22;42408;53.238;5.686;2022-11-02T01:14:08;12.40;99.90
56512;DHT22;42408;53.238;5.686;2022-11-02T01:16:34;12.40;99.90
56512;DHT22;42408;53.238;5.686;2022-11-02T01:19:00;12.40;99.90
56512;DHT22;42408;53.238;5.686;2022-11-02T01:21:25;12.50;99.90
56512;DHT22;42408;53.238;5.686;2022-11-02T01:23:51;12.50;99.90
56512;DHT22;42408;53.238;5.686;2022-11-02T01:26:16;12.40;99.90
56512;DHT22;42408;53.238;5.686;2022-11-02T01:28:42;12.30;99.90
56512;DHT22;42408;53.238;5.686;2022-11-02T01:31:08;12.50;99.90
56512;DHT22;42408;53.238;5.686;2022-11-02T01:33:34;12.50;99.90
56512;DHT22;42408;53.238;5.686;2022-11-02T01:36:01;12.40;99.90
56512;DHT22;42408;53.238;5.686;2022-11-02T01:38:27;12.50;99.90
56512;DHT22;42408;53.238;5.686;2022-11-02T01:40:52;12.40;99.90
56512;DHT22;42408;53.238;5.686;2022-11-02T01:43:22;12.40;99.90
56512;DHT22;42408;53.238;5.686;2022-11-02T01:45:58;12.40;99.90
56512;DHT22;42408;53.238;5.686;2022-11-02T01:48:26;12.50;99.90
56512;DHT22;42408;53.238;5.686;2022-11-02T01:50:52;12.30;99.90
56512;DHT22;42408;53.238;5.686;2022-11-02T01:53:18;12.40;99.90
56512;DHT22;42408;53.238;5.686;2022-11-02T01:55:44;12.30;99.90
56512;DHT22;42408;53.238;5.686;2022-11-02T01:58:10;12.30;99.90
56512;DHT22;42408;53.238;5.686;2022-11-02T02:00:36;12.30;99.90
56512;DHT22;42408;53.238;5.686;2022-11-02T02:03:07;12.30;99.90
56512;DHT22;42408;53.238;5.686;2022-11-02T02:05:34;12.10;99.90
56512;DHT22;42408;53.238;5.686;2022-11-02T02:08:02;12.10;99.90
56512;DHT22;42408;53.238;5.686;2022-11-02T02:10:28;11.90;99.90
56512;DHT22;42408;53.238;5.686;2022-11-02T02:12:53;11.80;99.90
56512;DHT22;42408;53.238;5.686;2022-11-02T02:15:23;11.90;99.90
56512;DHT22;42408;53.238;5.686;2022-11-02T02:17:54;11.90;99.90
56512;DHT22;42408;53.238;5.686;2022-11-02T02:28:39;11.70;99.90
56512;DHT22;42408;53.238;5.686;2022-11-02T02:31:08;11.70;99.90
56512;DHT22;42408;53.238;5.686;2022-11-02T02:33:58;11.70;99.90
56512;DHT22;42408;53.238;5.686;2022-11-02T02:36:23;11.70;99.90
56512;DHT22;42408;53.238;5.686;2022-11-02T02:39:04;11.70;99.90
56512;DHT22;42408;53.238;5.686;2022-11-02T02:44:30;11.60;99.90
56512;DHT22;42408;53.238;5.686;2022-11-02T02:47:02;11.60;99.90
56512;DHT22;42408;53.238;5.686;2022-11-02T02:49:31;11.60;99.90
56512;DHT22;42408;53.238;5.686;2022-11-02T02:51:59;11.70;99.90
56512;DHT22;42408;53.238;5.686;2022-11-02T02:54:29;11.70;99.90
56512;DHT22;42408;53.238;5.686;2022-11-02T02:56:56;11.60;99.90
56512;DHT22;42408;53.238;5.686;2022-11-02T02:59:30;11.70;99.90
56512;DHT22;42408;53.238;5.686;2022-11-02T03:01:57;11.80;99.90
56512;DHT22;42408;53.238;5.686;2022-11-02T03:04:23;11.80;99.90
56512;DHT22;42408;53.238;5.686;2022-11-02T03:06:53;11.70;99.90
56512;DHT22;42408;53.238;5.686;2022-11-02T03:14:52;11.70;99.90
56512;DHT22;42408;53.238;5.686;2022-11-02T03:17:21;11.70;99.90
56512;DHT22;42408;53.238;5.686;2022-11-02T03:22:46;11.60;99.90
56512;DHT22;42408;53.238;5.686;2022-11-02T03:25:15;11.60;99.90
56512;DHT22;42408;53.238;5.686;2022-11-02T03:30:11;11.60;99.90
56512;DHT22;42408;53.238;5.686;2022-11-02T03:32:46;11.50;99.90
56512;DHT22;42408;53.238;5.686;2022-11-02T03:35:17;11.50;99.90
56512;DHT22;42408;53.238;5.686;2022-11-02T03:37:45;11.50;99.90
56512;DHT22;42408;53.238;5.686;2022-11-02T03:40:13;11.50;99.90
56512;DHT22;42408;53.238;5.686;2022-11-02T03:42:41;11.50;99.90
56512;DHT22;42408;53.238;5.686;2022-11-02T03:45:14;11.60;99.90
56512;DHT22;42408;53.238;5.686;2022-11-02T03:47:41;11.60;99.90
56512;DHT22;42408;53.238;5.686;2022-11-02T03:50:08;11.50;99.90
56512;DHT22;42408;53.238;5.686;2022-11-02T03:52:36;11.40;99.90
56512;DHT22;42408;53.238;5.686;2022-11-02T03:57:34;11.30;99.90
56512;DHT22;42408;53.238;5.686;2022-11-02T04:00:11;11.40;99.90
56512;DHT22;42408;53.238;5.686;2022-11-02T04:02:37;11.40;99.90
56512;DHT22;42408;53.238;5.686;2022-11-02T04:05:03;11.30;99.90
56512;DHT22;42408;53.238;5.686;2022-11-02T04:07:30;11.30;99.90
56512;DHT22;42408;53.238;5.686;2022-11-02T04:10:17;11.20;99.90
56512;DHT22;42408;53.238;5.686;2022-11-02T04:12:42;11.20;99.90
56512;DHT22;42408;53.238;5.686;2022-11-02T04:15:43;11.30;99.90
56512;DHT22;42408;53.238;5.686;2022-11-02T04:18:09;11.30;99.90
56512;DHT22;42408;53.238;5.686;2022-11-02T04:20:53;11.30;99.90
56512;DHT22;42408;53.238;5.686;2022-11-02T04:23:18;11.30;99.90
56512;DHT22;42408;53.238;5.686;2022-11-02T04:26:03;11.30;99.90
56512;DHT22;42408;53.238;5.686;2022-11-02T04:28:29;11.30;99.90
56512;DHT22;42408;53.238;5.686;2022-11-02T04:30:56;11.10;99.90
56512;DHT22;42408;53.238;5.686;2022-11-02T04:33:22;11.30;99.90
56512;DHT22;42408;53.238;5.686;2022-11-02T04:38:25;11.30;99.90
56512;DHT22;42408;53.238;5.686;2022-11-02T04:41:13;11.20;99.90
56512;DHT22;42408;53.238;5.686;2022-11-02T04:44:12;11.30;99.90
56512;DHT22;42408;53.238;5.686;2022-11-02T04:46:41;11.40;99.90
56512;DHT22;42408;53.238;5.686;2022-11-02T04:49:07;11.30;99.90
56512;DHT22;42408;53.238;5.686;2022-11-02T04:51:33;11.20;99.90
56512;DHT22;42408;53.238;5.686;2022-11-02T04:53:59;11.40;99.90
56512;DHT22;42408;53.238;5.686;2022-11-02T04:56:25;11.30;99.90
56512;DHT22;42408;53.238;5.686;2022-11-02T04:58:52;11.30;99.90
56512;DHT22;42408;53.238;5.686;2022-11-02T05:01:18;11.20;99.90
56512;DHT22;42408;53.238;5.686;2022-11-02T05:03:47;11.10;99.90
56512;DHT22;42408;53.238;5.686;2022-11-02T05:06:13;11.20;99.90
56512;DHT22;42408;53.238;5.686;2022-11-02T05:08:39;11.20;99.90
56512;DHT22;42408;53.238;5.686;2022-11-02T05:11:04;11.10;99.90
56512;DHT22;42408;53.238;5.686;2022-11-02T05:13:30;11.20;99.90
56512;DHT22;42408;53.238;5.686;2022-11-02T05:15:56;11.20;99.90
56512;DHT22;42408;53.238;5.686;2022-11-02T05:18:22;11.20;99.90
56512;DHT22;42408;53.238;5.686;2022-11-02T05:20:51;11.10;99.90
56512;DHT22;42408;53.238;5.686;2022-11-02T05:23:17;11.20;99.90
56512;DHT22;42408;53.238;5.686;2022-11-02T05:25:50;11.20;99.90
56512;DHT22;42408;53.238;5.686;2022-11-02T05:28:16;11.30;99.90
56512;DHT22;42408;53.238;5.686;2022-11-02T05:30:41;11.20;99.90
56512;DHT22;42408;53.238;5.686;2022-11-02T05:33:07;11.20;99.90
56512;DHT22;42408;53.238;5.686;2022-11-02T05:35:32;11.20;99.90
56512;DHT22;42408;53.238;5.686;2022-11-02T05:37:58;11.30;99.90
56512;DHT22;42408;53.238;5.686;2022-11-02T05:40:23;11.30;99.90
56512;DHT22;42408;53.238;5.686;2022-11-02T05:42:49;11.40;99.90
56512;DHT22;42408;53.238;5.686;2022-11-02T05:45:14;11.30;99.90
56512;DHT22;42408;53.238;5.686;2022-11-02T05:47:40;11.30;99.90
56512;DHT22;42408;53.238;5.686;2022-11-02T05:50:05;11.40;99.90
56512;DHT22;42408;53.238;5.686;2022-11-02T05:52:31;11.40;99.90
56512;DHT22;42408;53.238;5.686;2022-11-02T05:54:56;11.40;99.90
56512;DHT22;42408;53.238;5.686;2022-11-02T05:57:22;11.50;99.90
56512;DHT22;42408;53.238;5.686;2022-11-02T05:59:47;11.40;99.90
56512;DHT22;42408;53.238;5.686;2022-11-02T06:02:13;11.50;99.90
56512;DHT22;42408;53.238;5.686;2022-11-02T06:04:38;11.50;99.90
56512;DHT22;42408;53.238;5.686;2022-11-02T06:07:04;11.50;99.90
56512;DHT22;42408;53.238;5.686;2022-11-02T06:09:29;11.60;99.90
56512;DHT22;42408;53.238;5.686;2022-11-02T06:11:55;11.60;99.90
56512;DHT22;42408;53.238;5.686;2022-11-02T06:14:21;11.60;99.90
56512;DHT22;42408;53.238;5.686;2022-11-02T06:16:46;11.60;99.90
56512;DHT22;42408;53.238;5.686;2022-11-02T06:19:12;11.70;99.90
56512;DHT22;42408;53.238;5.686;2022-11-02T06:21:37;11.60;99.90
56512;DHT22;42408;53.238;5.686;2022-11-02T06:24:03;11.60;99.90
56512;DHT22;42408;53.238;5.686;2022-11-02T06:26:29;11.60;99.90
56512;DHT22;42408;53.238;5.686;2022-11-02T06:28:54;11.50;99.90
56512;DHT22;42408;53.238;5.686;2022-11-02T06:31:20;11.40;99.90
56512;DHT22;42408;53.238;5.686;2022-11-02T06:33:45;11.30;99.90
56512;DHT22;42408;53.238;5.686;2022-11-02T06:36:11;11.30;99.90
56512;DHT22;42408;53.238;5.686;2022-11-02T06:38:36;11.30;99.90
56512;DHT22;42408;53.238;5.686;2022-11-02T06:41:03;11.20;99.90
56512;DHT22;42408;53.238;5.686;2022-11-02T06:43:31;11.20;99.90
56512;DHT22;42408;53.238;5.686;2022-11-02T06:45:57;11.20;99.90
56512;DHT22;42408;53.238;5.686;2022-11-02T06:48:23;11.20;99.90
56512;DHT22;42408;53.238;5.686;2022-11-02T06:50:49;11.20;99.90
56512;DHT22;42408;53.238;5.686;2022-11-02T06:53:14;11.20;99.90
56512;DHT22;42408;53.238;5.686;2022-11-02T06:55:40;11.20;99.90
56512;DHT22;42408;53.238;5.686;2022-11-02T06:58:05;11.20;99.90
56512;DHT22;42408;53.238;5.686;2022-11-02T07:00:31;11.20;99.90
56512;DHT22;42408;53.238;5.686;2022-11-02T07:05:25;11.20;99.90
56512;DHT22;42408;53.238;5.686;2022-11-02T07:07:53;11.20;99.90
56512;DHT22;42408;53.238;5.686;2022-11-02T07:10:19;11.20;99.90
56512;DHT22;42408;53.238;5.686;2022-11-02T07:12:44;11.30;99.90
56512;DHT22;42408;53.238;5.686;2022-11-02T07:15:10;11.30;99.90
56512;DHT22;42408;53.238;5.686;2022-11-02T07:17:38;11.30;99.90
56512;DHT22;42408;53.238;5.686;2022-11-02T07:20:04;11.30;99.90
56512;DHT22;42408;53.238;5.686;2022-11-02T07:22:30;11.30;99.90
56512;DHT22;42408;53.238;5.686;2022-11-02T07:24:55;11.90;99.90
56512;DHT22;42408;53.238;5.686;2022-11-02T07:27:21;11.30;99.90
56512;DHT22;42408;53.238;5.686;2022-11-02T07:29:47;11.30;99.90
56512;DHT22;42408;53.238;5.686;2022-11-02T07:32:12;11.50;99.90
56512;DHT22;42408;53.238;5.686;2022-11-02T07:34:38;11.50;99.90
56512;DHT22;42408;53.238;5.686;2022-11-02T07:37:03;11.60;99.90
56512;DHT22;42408;53.238;5.686;2022-11-02T07:39:29;11.70;99.90
56512;DHT22;42408;53.238;5.686;2022-11-02T07:41:54;11.70;99.90
56512;DHT22;42408;53.238;5.686;2022-11-02T07:44:20;11.80;99.90
56512;DHT22;42408;53.238;5.686;2022-11-02T07:46:45;11.70;99.90
56512;DHT22;42408;53.238;5.686;2022-11-02T07:49:11;11.70;99.90
56512;DHT22;42408;53.238;5.686;2022-11-02T07:51:36;11.70;99.90
56512;DHT22;42408;53.238;5.686;2022-11-02T07:54:02;11.60;99.90
56512;DHT22;42408;53.238;5.686;2022-11-02T07:56:27;11.70;99.90
56512;DHT22;42408;53.238;5.686;2022-11-02T07:58:53;11.70;99.90
56512;DHT22;42408;53.238;5.686;2022-11-02T08:01:18;11.70;99.90
56512;DHT22;42408;53.238;5.686;2022-11-02T08:03:43;11.80;99.90
56512;DHT22;42408;53.238;5.686;2022-11-02T08:06:09;11.80;99.90
56512;DHT22;42408;53.238;5.686;2022-11-02T08:08:35;11.90;99.90
56512;DHT22;42408;53.238;5.686;2022-11-02T08:11:04;12.00;99.90
56512;DHT22;42408;53.238;5.686;2022-11-02T08:13:30;12.00;99.90
56512;DHT22;42408;53.238;5.686;2022-11-02T08:15:56;12.10;99.90
56512;DHT22;42408;53.238;5.686;2022-11-02T08:18:22;12.10;99.90
56512;DHT22;42408;53.238;5.686;2022-11-02T08:20:48;12.20;99.90
56512;DHT22;42408;53.238;5.686;2022-11-02T08:23:14;12.20;99.90
56512;DHT22;42408;53.238;5.686;2022-11-02T08:25:40;12.20;99.90
56512;DHT22;42408;53.238;5.686;2022-11-02T08:28:06;12.30;99.90
56512;DHT22;42408;53.238;5.686;2022-11-02T08:30:32;12.30;99.90
56512;DHT22;42408;53.238;5.686;2022-11-02T08:33:16;12.30;99.90
56512;DHT22;42408;53.238;5.686;2022-11-02T08:35:43;12.30;99.90
56512;DHT22;42408;53.238;5.686;2022-11-02T08:38:09;12.30;99.90
56512;DHT22;42408;53.238;5.686;2022-11-02T08:40:35;12.40;99.90
56512;DHT22;42408;53.238;5.686;2022-11-02T08:43:02;12.60;99.90
56512;DHT22;42408;53.238;5.686;2022-11-02T08:45:28;12.40;99.90
56512;DHT22;42408;53.238;5.686;2022-11-02T08:47:53;12.50;99.90
56512;DHT22;42408;53.238;5.686;2022-11-02T08:50:19;12.50;99.90
56512;DHT22;42408;53.238;5.686;2022-11-02T08:52:45;12.50;99.90
56512;DHT22;42408;53.238;5.686;2022-11-02T08:55:10;12.60;99.90
56512;DHT22;42408;53.238;5.686;2022-11-02T08:57:43;12.60;99.90
56512;DHT22;42408;53.238;5.686;2022-11-02T09:00:09;12.60;99.90
56512;DHT22;42408;53.238;5.686;2022-11-02T09:02:34;12.60;99.90
56512;DHT22;42408;53.238;5.686;2022-11-02T09:05:00;12.70;99.90
56512;DHT22;42408;53.238;5.686;2022-11-02T09:07:25;12.70;99.90
56512;DHT22;42408;53.238;5.686;2022-11-02T09:09:51;12.70;99.90
56512;DHT22;42408;53.238;5.686;2022-11-02T09:12:16;12.80;99.90
56512;DHT22;42408;53.238;5.686;2022-11-02T09:14:42;12.80;99.90
56512;DHT22;42408;53.238;5.686;2022-11-02T09:17:07;12.80;99.90
56512;DHT22;42408;53.238;5.686;2022-11-02T09:19:33;12.80;99.90
56512;DHT22;42408;53.238;5.686;2022-11-02T09:21:58;12.80;99.90
56512;DHT22;42408;53.238;5.686;2022-11-02T09:24:24;12.90;99.90
56512;DHT22;42408;53.238;5.686;2022-11-02T09:26:51;13.00;99.90
56512;DHT22;42408;53.238;5.686;2022-11-02T09:29:16;13.10;99.90
56512;DHT22;42408;53.238;5.686;2022-11-02T09:31:42;13.20;99.90
56512;DHT22;42408;53.238;5.686;2022-11-02T09:34:07;13.20;99.90
56512;DHT22;42408;53.238;5.686;2022-11-02T09:36:33;13.20;99.90
56512;DHT22;42408;53.238;5.686;2022-11-02T09:38:58;13.40;99.90
56512;DHT22;42408;53.238;5.686;2022-11-02T09:41:25;13.40;99.90
56512;DHT22;42408;53.238;5.686;2022-11-02T09:44:02;13.50;99.90
56512;DHT22;42408;53.238;5.686;2022-11-02T09:46:30;13.50;99.90
56512;DHT22;42408;53.238;5.686;2022-11-02T09:48:57;13.60;99.90
56512;DHT22;42408;53.238;5.686;2022-11-02T09:51:25;13.60;99.90
56512;DHT22;42408;53.238;5.686;2022-11-02T09:54:11;13.70;99.90
56512;DHT22;42408;53.238;5.686;2022-11-02T09:56:40;13.70;99.90
56512;DHT22;42408;53.238;5.686;2022-11-02T09:59:12;13.70;99.90
56512;DHT22;42408;53.238;5.686;2022-11-02T10:01:46;13.80;99.90
56512;DHT22;42408;53.238;5.686;2022-11-02T10:06:40;13.80;99.90
56512;DHT22;42408;53.238;5.686;2022-11-02T10:09:11;13.90;99.90
56512;DHT22;42408;53.238;5.686;2022-11-02T10:14:13;14.00;99.90
56512;DHT22;42408;53.238;5.686;2022-11-02T10:17:02;14.10;99.90
56512;DHT22;42408;53.238;5.686;2022-11-02T10:19:29;14.10;99.90
56512;DHT22;42408;53.238;5.686;2022-11-02T10:21:57;14.10;99.90
56512;DHT22;42408;53.238;5.686;2022-11-02T10:24:25;14.10;99.90
56512;DHT22;42408;53.238;5.686;2022-11-02T10:26:55;14.20;99.90
56512;DHT22;42408;53.238;5.686;2022-11-02T10:29:25;14.30;99.90
56512;DHT22;42408;53.238;5.686;2022-11-02T10:31:54;14.30;99.90
56512;DHT22;42408;53.238;5.686;2022-11-02T10:34:26;14.40;99.90
56512;DHT22;42408;53.238;5.686;2022-11-02T10:47:46;14.30;99.90
56512;DHT22;42408;53.238;5.686;2022-11-02T10:52:49;14.20;99.90
56512;DHT22;42408;53.238;5.686;2022-11-02T10:55:19;14.30;99.90
56512;DHT22;42408;53.238;5.686;2022-11-02T10:57:46;14.40;99.90
56512;DHT22;42408;53.238;5.686;2022-11-02T11:05:28;14.50;99.90
56512;DHT22;42408;53.238;5.686;2022-11-02T11:07:53;14.50;99.90
56512;DHT22;42408;53.238;5.686;2022-11-02T11:10:19;14.60;99.90
56512;DHT22;42408;53.238;5.686;2022-11-02T11:12:47;14.60;99.90
56512;DHT22;42408;53.238;5.686;2022-11-02T11:15:20;14.60;99.90
56512;DHT22;42408;53.238;5.686;2022-11-02T11:17:46;14.60;99.90
56512;DHT22;42408;53.238;5.686;2022-11-02T11:20:23;14.50;99.90
56512;DHT22;42408;53.238;5.686;2022-11-02T11:23:07;14.50;99.90
56512;DHT22;42408;53.238;5.686;2022-11-02T11:25:36;14.40;99.90
56512;DHT22;42408;53.238;5.686;2022-11-02T11:28:12;14.30;99.90
56512;DHT22;42408;53.238;5.686;2022-11-02T11:30:44;14.40;99.90
56512;DHT22;42408;53.238;5.686;2022-11-02T11:33:15;14.30;99.90
56512;DHT22;42408;53.238;5.686;2022-11-02T11:35:41;14.40;99.90
56512;DHT22;42408;53.238;5.686;2022-11-02T11:38:16;14.30;99.90
56512;DHT22;42408;53.238;5.686;2022-11-02T11:40:43;14.30;99.90
56512;DHT22;42408;53.238;5.686;2022-11-02T11:43:09;14.40;99.90
56512;DHT22;42408;53.238;5.686;2022-11-02T11:45:36;14.40;99.90
56512;DHT22;42408;53.238;5.686;2022-11-02T11:48:06;14.40;99.90
56512;DHT22;42408;53.238;5.686;2022-11-02T11:50:46;14.30;99.90
56512;DHT22;42408;53.238;5.686;2022-11-02T11:55:44;14.30;99.90
56512;DHT22;42408;53.238;5.686;2022-11-02T12:00:44;14.30;99.90
56512;DHT22;42408;53.238;5.686;2022-11-02T12:03:11;14.30;99.90
56512;DHT22;42408;53.238;5.686;2022-11-02T12:05:41;14.40;99.90
56512;DHT22;42408;53.238;5.686;2022-11-02T12:10:46;14.50;99.90
56512;DHT22;42408;53.238;5.686;2022-11-02T12:15:54;14.60;99.90
56512;DHT22;42408;53.238;5.686;2022-11-02T12:23:31;14.60;99.90
56512;DHT22;42408;53.238;5.686;2022-11-02T12:28:36;14.60;99.90
56512;DHT22;42408;53.238;5.686;2022-11-02T12:33:45;14.70;99.90
56512;DHT22;42408;53.238;5.686;2022-11-02T12:38:47;14.80;99.90
56512;DHT22;42408;53.238;5.686;2022-11-02T12:43:46;15.00;99.90
56512;DHT22;42408;53.238;5.686;2022-11-02T12:54:19;15.20;99.90
56512;DHT22;42408;53.238;5.686;2022-11-02T12:56:49;15.30;99.90
56512;DHT22;42408;53.238;5.686;2022-11-02T12:59:17;15.30;99.90
56512;DHT22;42408;53.238;5.686;2022-11-02T13:01:44;15.30;99.90
56512;DHT22;42408;53.238;5.686;2022-11-02T13:06:38;15.30;99.90
56512;DHT22;42408;53.238;5.686;2022-11-02T13:09:10;15.30;99.90
56512;DHT22;42408;53.238;5.686;2022-11-02T13:11:42;15.30;99.90
56512;DHT22;42408;53.238;5.686;2022-11-02T13:14:16;15.20;99.90
56512;DHT22;42408;53.238;5.686;2022-11-02T13:16:47;15.20;99.90
56512;DHT22;42408;53.238;5.686;2022-11-02T13:19:16;15.20;99.90
56512;DHT22;42408;53.238;5.686;2022-11-02T13:21:44;15.30;99.90
56512;DHT22;42408;53.238;5.686;2022-11-02T13:24:18;15.20;99.90
56512;DHT22;42408;53.238;5.686;2022-11-02T13:26:45;15.20;99.90
56512;DHT22;42408;53.238;5.686;2022-11-02T13:29:14;15.20;99.90
56512;DHT22;42408;53.238;5.686;2022-11-02T13:31:45;15.20;99.90
56512;DHT22;42408;53.238;5.686;2022-11-02T13:34:13;15.30;99.90
56512;DHT22;42408;53.238;5.686;2022-11-02T13:36:39;15.30;99.90
56512;DHT22;42408;53.238;5.686;2022-11-02T13:39:13;15.40;99.90
56512;DHT22;42408;53.238;5.686;2022-11-02T13:49:52;15.20;99.90
56512;DHT22;42408;53.238;5.686;2022-11-02T13:52:20;15.30;99.90
56512;DHT22;42408;53.238;5.686;2022-11-02T13:54:47;15.20;99.90
56512;DHT22;42408;53.238;5.686;2022-11-02T13:59:53;15.30;99.90
56512;DHT22;42408;53.238;5.686;2022-11-02T14:02:18;15.20;99.90
56512;DHT22;42408;53.238;5.686;2022-11-02T14:04:46;15.10;99.90
56512;DHT22;42408;53.238;5.686;2022-11-02T14:09:51;15.10;99.90
56512;DHT22;42408;53.238;5.686;2022-11-02T14:17:55;14.80;99.90
56512;DHT22;42408;53.238;5.686;2022-11-02T14:25:54;14.70;99.90
56512;DHT22;42408;53.238;5.686;2022-11-02T14:30:44;14.50;99.90
56512;DHT22;42408;53.238;5.686;2022-11-02T14:36:04;14.30;99.90
56512;DHT22;42408;53.238;5.686;2022-11-02T14:43:47;14.10;99.90
56512;DHT22;42408;53.238;5.686;2022-11-02T14:48:54;14.10;99.90
56512;DHT22;42408;53.238;5.686;2022-11-02T14:51:21;14.00;99.90
56512;DHT22;42408;53.238;5.686;2022-11-02T14:53:48;13.90;99.90
56512;DHT22;42408;53.238;5.686;2022-11-02T14:56:14;13.90;99.90
56512;DHT22;42408;53.238;5.686;2022-11-02T14:58:45;13.90;99.90
56512;DHT22;42408;53.238;5.686;2022-11-02T15:01:12;13.90;99.90
56512;DHT22;42408;53.238;5.686;2022-11-02T15:03:38;13.90;99.90
56512;DHT22;42408;53.238;5.686;2022-11-02T15:13:51;13.70;99.90
56512;DHT22;42408;53.238;5.686;2022-11-02T15:16:20;13.70;99.90
56512;DHT22;42408;53.238;5.686;2022-11-02T15:18:45;13.60;99.90
56512;DHT22;42408;53.238;5.686;2022-11-02T15:23:48;13.50;99.90
56512;DHT22;42408;53.238;5.686;2022-11-02T15:27:02;13.50;99.90
56512;DHT22;42408;53.238;5.686;2022-11-02T15:29:03;13.40;99.90
56512;DHT22;42408;53.238;5.686;2022-11-02T15:31:29;13.30;99.90
56512;DHT22;42408;53.238;5.686;2022-11-02T15:33:58;13.30;99.90
56512;DHT22;42408;53.238;5.686;2022-11-02T15:36:31;13.40;99.90
56512;DHT22;42408;53.238;5.686;2022-11-02T15:38:57;13.30;99.90
56512;DHT22;42408;53.238;5.686;2022-11-02T15:51:35;13.20;99.90
56512;DHT22;42408;53.238;5.686;2022-11-02T15:54:09;13.10;99.90
56512;DHT22;42408;53.238;5.686;2022-11-02T15:57:01;13.10;99.90
56512;DHT22;42408;53.238;5.686;2022-11-02T16:02:06;13.00;99.90
56512;DHT22;42408;53.238;5.686;2022-11-02T16:04:34;13.10;99.90
56512;DHT22;42408;53.238;5.686;2022-11-02T16:07:04;13.00;99.90
56512;DHT22;42408;53.238;5.686;2022-11-02T16:09:32;12.90;99.90
56512;DHT22;42408;53.238;5.686;2022-11-02T16:12:14;12.90;99.90
56512;DHT22;42408;53.238;5.686;2022-11-02T16:14:44;12.90;99.90
56512;DHT22;42408;53.238;5.686;2022-11-02T16:17:33;12.90;99.90
56512;DHT22;42408;53.238;5.686;2022-11-02T16:20:16;12.80;99.90
56512;DHT22;42408;53.238;5.686;2022-11-02T16:22:50;12.80;99.90
56512;DHT22;42408;53.238;5.686;2022-11-02T16:25:24;12.80;99.90
56512;DHT22;42408;53.238;5.686;2022-11-02T16:27:54;12.70;99.90
56512;DHT22;42408;53.238;5.686;2022-11-02T16:30:20;12.70;99.90
56512;DHT22;42408;53.238;5.686;2022-11-02T16:32:46;12.80;99.90
56512;DHT22;42408;53.238;5.686;2022-11-02T16:35:13;12.80;99.90
56512;DHT22;42408;53.238;5.686;2022-11-02T16:37:39;12.80;99.90
56512;DHT22;42408;53.238;5.686;2022-11-02T16:40:05;12.70;99.90
56512;DHT22;42408;53.238;5.686;2022-11-02T16:42:31;12.60;99.90
56512;DHT22;42408;53.238;5.686;2022-11-02T16:44:57;12.60;99.90
56512;DHT22;42408;53.238;5.686;2022-11-02T16:47:27;12.70;99.90
56512;DHT22;42408;53.238;5.686;2022-11-02T16:52:20;12.70;99.90
56512;DHT22;42408;53.238;5.686;2022-11-02T16:54:46;12.50;99.90
56512;DHT22;42408;53.238;5.686;2022-11-02T16:59:52;12.60;99.90
56512;DHT22;42408;53.238;5.686;2022-11-02T17:02:22;12.50;99.90
56512;DHT22;42408;53.238;5.686;2022-11-02T17:04:49;12.50;99.90
56512;DHT22;42408;53.238;5.686;2022-11-02T17:07:21;12.50;99.90
56512;DHT22;42408;53.238;5.686;2022-11-02T17:09:48;12.40;99.90
56512;DHT22;42408;53.238;5.686;2022-11-02T17:12:15;12.30;99.90
56512;DHT22;42408;53.238;5.686;2022-11-02T17:14:42;12.20;99.90
56512;DHT22;42408;53.238;5.686;2022-11-02T17:19:47;12.10;99.90
56512;DHT22;42408;53.238;5.686;2022-11-02T17:24:46;12.00;99.90
56512;DHT22;42408;53.238;5.686;2022-11-02T17:27:25;12.00;99.90
56512;DHT22;42408;53.238;5.686;2022-11-02T17:29:51;12.00;99.90
56512;DHT22;42408;53.238;5.686;2022-11-02T17:32:19;11.90;99.90
56512;DHT22;42408;53.238;5.686;2022-11-02T17:34:52;12.10;99.90
56512;DHT22;42408;53.238;5.686;2022-11-02T17:37:27;11.80;99.90
56512;DHT22;42408;53.238;5.686;2022-11-02T17:39:53;11.80;99.90
56512;DHT22;42408;53.238;5.686;2022-11-02T17:42:19;11.70;99.90
56512;DHT22;42408;53.238;5.686;2022-11-02T17:47:47;11.70;99.90
56512;DHT22;42408;53.238;5.686;2022-11-02T17:50:13;11.70;99.90
56512;DHT22;42408;53.238;5.686;2022-11-02T17:52:38;11.60;99.90
56512;DHT22;42408;53.238;5.686;2022-11-02T17:55:04;11.60;99.90
56512;DHT22;42408;53.238;5.686;2022-11-02T17:57:31;11.60;99.90
56512;DHT22;42408;53.238;5.686;2022-11-02T17:59:56;12.10;99.90
56512;DHT22;42408;53.238;5.686;2022-11-02T18:02:22;11.50;99.90
56512;DHT22;42408;53.238;5.686;2022-11-02T18:04:47;11.40;99.90
56512;DHT22;42408;53.238;5.686;2022-11-02T18:07:13;11.40;99.90
56512;DHT22;42408;53.238;5.686;2022-11-02T18:09:38;11.40;99.90
56512;DHT22;42408;53.238;5.686;2022-11-02T18:12:04;11.40;99.90
56512;DHT22;42408;53.238;5.686;2022-11-02T18:14:29;11.40;99.90
56512;DHT22;42408;53.238;5.686;2022-11-02T18:16:55;11.40;99.90
56512;DHT22;42408;53.238;5.686;2022-11-02T18:19:21;11.40;99.90